createdAt,value
2022-11-24T00:02:54.200Z,6.03
2022-11-24T00:05:56.908Z,6.20
2022-11-24T00:08:59.241Z,6.29
2022-11-24T00:12:01.821Z,6.31
2022-11-24T00:15:04.248Z,6.33
2022-11-24T00:18:06.783Z,6.29
2022-11-24T00:21:09.785Z,6.36
2022-11-24T00:24:12.467Z,6.33
2022-11-24T00:27:14.832Z,6.30
2022-11-24T00:30:17.402Z,6.33
2022-11-24T00:33:19.570Z,6.15
2022-11-24T00:36:24.068Z,6.13
2022-11-24T00:39:26.270Z,6.14
2022-11-24T00:42:28.857Z,6.12
2022-11-24T00:45:31.024Z,6.20
2022-11-24T00:48:33.606Z,6.14
2022-11-24T00:51:35.794Z,6.00
2022-11-24T00:54:38.309Z,6.01
2022-11-24T00:57:40.518Z,6.18
2022-11-24T01:00:43.287Z,6.14
2022-11-24T01:03:47.406Z,6.02
2022-11-24T01:06:49.943Z,6.07
2022-11-24T01:09:52.129Z,5.99
2022-11-24T01:12:54.659Z,6.09
2022-11-24T01:15:56.895Z,6.11
2022-11-24T01:19:00.182Z,6.11
2022-11-24T01:22:02.365Z,6.08
2022-11-24T01:25:09.680Z,6.08
2022-11-24T01:28:11.975Z,6.15
2022-11-24T01:31:15.529Z,6.24
2022-11-24T01:34:17.807Z,6.19
2022-11-24T01:37:20.540Z,6.13
2022-11-24T01:40:22.780Z,6.32
2022-11-24T01:43:25.351Z,6.28
2022-11-24T01:46:46.772Z,6.25
2022-11-24T01:49:54.752Z,6.32
2022-11-24T01:52:57.241Z,6.20
2022-11-24T01:55:59.936Z,6.36
2022-11-24T01:59:04.821Z,6.29
2022-11-24T02:02:08.005Z,6.23
2022-11-24T02:05:19.872Z,6.26
2022-11-24T02:08:48.540Z,6.18
2022-11-24T02:11:52.009Z,6.07
2022-11-24T02:14:55.942Z,6.19
2022-11-24T02:17:59.176Z,6.19
2022-11-24T02:21:01.888Z,6.13
2022-11-24T02:24:11.580Z,6.22
2022-11-24T02:27:14.244Z,6.29
2022-11-24T02:30:16.756Z,6.08
2022-11-24T02:33:21.491Z,6.19
2022-11-24T02:36:24.335Z,6.34
2022-11-24T02:39:26.885Z,6.38
2022-11-24T02:42:34.004Z,6.28
2022-11-24T02:45:36.558Z,6.28
2022-11-24T02:48:39.312Z,6.25
2022-11-24T02:51:41.997Z,6.24
2022-11-24T02:54:44.250Z,6.17
2022-11-24T02:57:47.263Z,5.84
2022-11-24T03:00:49.534Z,5.76
2022-11-24T03:03:52.151Z,6.06
2022-11-24T03:06:54.617Z,5.91
2022-11-24T03:09:57.238Z,6.16
2022-11-24T03:12:59.460Z,6.05
2022-11-24T03:16:02.181Z,5.96
2022-11-24T03:19:04.680Z,5.81
2022-11-24T03:22:07.312Z,6.04
2022-11-24T03:25:09.919Z,6.02
2022-11-24T03:28:12.535Z,5.96
2022-11-24T03:31:15.458Z,6.02
2022-11-24T03:34:18.217Z,6.07
2022-11-24T03:37:20.985Z,6.05
2022-11-24T03:40:23.486Z,6.05
2022-11-24T03:43:25.935Z,6.18
2022-11-24T03:46:28.580Z,5.97
2022-11-24T03:49:30.910Z,5.95
2022-11-24T03:52:33.551Z,5.93
2022-11-24T03:55:35.927Z,6.03
2022-11-24T03:58:38.680Z,6.03
2022-11-24T04:01:40.965Z,6.02
2022-11-24T04:04:48.460Z,5.87
2022-11-24T04:07:56.853Z,5.95
2022-11-24T04:10:59.512Z,5.93
2022-11-24T04:14:01.820Z,6.07
2022-11-24T04:17:04.660Z,6.05
2022-11-24T04:20:07.439Z,5.97
2022-11-24T04:23:10.930Z,5.86
2022-11-24T04:26:13.982Z,5.89
2022-11-24T04:29:16.677Z,5.86
2022-11-24T04:32:19.017Z,5.70
2022-11-24T04:35:21.876Z,5.64
2022-11-24T04:39:19.923Z,5.70
2022-11-24T04:41:49.638Z,5.73
2022-11-24T04:44:52.032Z,5.81
2022-11-24T04:47:54.629Z,5.60
2022-11-24T04:50:57.027Z,5.78
2022-11-24T04:53:59.613Z,5.57
2022-11-24T04:57:01.714Z,5.56
2022-11-24T05:00:04.720Z,5.65
2022-11-24T05:03:06.802Z,5.65
2022-11-24T05:06:09.270Z,5.60
2022-11-24T05:09:16.088Z,5.77
2022-11-24T05:12:19.215Z,5.64
2022-11-24T05:15:21.500Z,5.48
2022-11-24T05:18:24.042Z,5.46
2022-11-24T05:21:27.404Z,5.53
2022-11-24T05:24:29.921Z,5.34
2022-11-24T05:27:32.192Z,5.51
2022-11-24T05:30:34.722Z,5.47
2022-11-24T05:33:38.282Z,5.48
2022-11-24T05:37:06.919Z,5.70
2022-11-24T05:40:09.354Z,5.64
2022-11-24T05:43:12.983Z,5.51
2022-11-24T05:46:15.200Z,5.58
2022-11-24T05:49:17.786Z,5.51
2022-11-24T05:52:19.975Z,5.65
2022-11-24T05:55:22.545Z,5.84
2022-11-24T05:58:24.683Z,5.68
2022-11-24T06:01:28.254Z,5.72
2022-11-24T06:04:31.643Z,5.84
2022-11-24T06:07:34.019Z,5.90
2022-11-24T06:10:36.662Z,5.61
2022-11-24T06:13:42.274Z,5.64
2022-11-24T06:16:45.489Z,5.65
2022-11-24T06:19:50.633Z,5.79
2022-11-24T06:22:53.263Z,5.94
2022-11-24T06:25:58.490Z,6.21
2022-11-24T06:29:01.406Z,5.88
2022-11-24T06:32:03.997Z,6.04
2022-11-24T06:35:06.756Z,5.98
2022-11-24T06:38:09.143Z,5.97
2022-11-24T06:41:14.224Z,5.93
2022-11-24T06:44:16.790Z,5.93
2022-11-24T06:47:19.490Z,6.03
2022-11-24T06:50:23.041Z,5.94
2022-11-24T06:53:25.885Z,5.98
2022-11-24T06:56:28.088Z,5.81
2022-11-24T06:59:30.582Z,6.15
2022-11-24T07:02:32.892Z,5.96
2022-11-24T07:05:36.422Z,5.98
2022-11-24T07:08:38.582Z,6.08
2022-11-24T07:11:41.636Z,6.12
2022-11-24T07:14:43.966Z,6.05
2022-11-24T07:17:46.604Z,5.98
2022-11-24T07:20:48.924Z,6.28
2022-11-24T07:23:56.634Z,6.32
2022-11-24T07:26:58.780Z,6.27
2022-11-24T07:30:01.548Z,6.29
2022-11-24T07:33:03.983Z,6.58
2022-11-24T07:36:08.262Z,6.46
2022-11-24T07:39:10.477Z,6.65
2022-11-24T07:42:12.984Z,6.67
2022-11-24T07:45:15.568Z,6.88
2022-11-24T07:48:18.528Z,6.92
2022-11-24T07:51:21.107Z,6.83
2022-11-24T07:54:23.708Z,6.83
2022-11-24T07:57:25.974Z,6.77
2022-11-24T08:00:29.257Z,6.72
2022-11-24T08:03:32.619Z,6.97
2022-11-24T08:06:41.927Z,6.87
2022-11-24T08:09:48.303Z,6.89
2022-11-24T08:12:51.184Z,6.88
2022-11-24T08:15:55.539Z,6.85
2022-11-24T08:18:57.737Z,7.00
2022-11-24T08:22:00.462Z,6.97
2022-11-24T08:25:02.923Z,7.02
2022-11-24T08:28:05.634Z,7.23
2022-11-24T08:31:10.315Z,7.34
2022-11-24T08:34:12.841Z,7.47
2022-11-24T08:37:15.098Z,7.53
2022-11-24T08:40:17.756Z,7.50
2022-11-24T08:43:19.977Z,7.41
2022-11-24T08:46:22.845Z,7.56
2022-11-24T08:49:25.232Z,7.35
2022-11-24T08:52:28.207Z,7.69
2022-11-24T08:55:30.284Z,7.70
2022-11-24T08:58:34.599Z,7.17
2022-11-24T09:01:36.940Z,7.00
2022-11-24T09:04:40.094Z,7.30
2022-11-24T09:07:42.305Z,7.35
2022-11-24T09:10:44.802Z,7.42
2022-11-24T09:13:47.025Z,7.35
2022-11-24T09:16:49.478Z,7.45
2022-11-24T09:19:51.620Z,7.72
2022-11-24T09:22:54.919Z,7.60
2022-11-24T09:26:07.406Z,7.62
2022-11-24T09:29:09.936Z,7.40
2022-11-24T09:32:13.095Z,7.30
2022-11-24T09:35:15.774Z,7.65
2022-11-24T09:38:17.998Z,7.49
2022-11-24T09:41:45.024Z,7.54
2022-11-24T09:45:09.749Z,7.60
2022-11-24T09:48:39.884Z,7.75
2022-11-24T09:51:45.673Z,7.76
2022-11-24T09:54:56.709Z,7.73
2022-11-24T09:58:37.277Z,7.55
2022-11-24T10:01:42.222Z,7.35
2022-11-24T10:04:47.130Z,7.29
2022-11-24T10:08:09.440Z,7.37
2022-11-24T10:11:14.966Z,7.11
2022-11-24T10:14:17.068Z,7.06
2022-11-24T10:17:38.554Z,7.16
2022-11-24T10:20:59.489Z,7.31
2022-11-24T10:24:49.403Z,7.15
2022-11-24T10:28:02.676Z,7.10
2022-11-24T10:31:32.513Z,7.34
2022-11-24T10:34:52.157Z,7.41
2022-11-24T10:38:10.300Z,7.46
2022-11-24T10:41:31.195Z,7.50
2022-11-24T10:44:36.559Z,7.60
2022-11-24T10:47:40.218Z,7.73
2022-11-24T10:50:43.797Z,7.89
2022-11-24T10:53:48.322Z,7.92
2022-11-24T10:56:52.629Z,7.77
2022-11-24T10:59:56.805Z,7.68
2022-11-24T11:03:18.035Z,7.98
2022-11-24T11:06:31.667Z,7.96
2022-11-24T11:09:36.703Z,7.98
2022-11-24T11:12:44.247Z,8.05
2022-11-24T11:15:47.728Z,8.23
2022-11-24T11:18:51.871Z,8.41
2022-11-24T11:22:02.423Z,8.41
2022-11-24T11:25:10.876Z,8.51
2022-11-24T11:28:25.828Z,8.49
2022-11-24T11:31:29.036Z,8.56
2022-11-24T11:34:36.645Z,8.44
2022-11-24T11:37:40.472Z,8.47
2022-11-24T11:40:44.024Z,8.56
2022-11-24T11:43:50.548Z,8.60
2022-11-24T11:46:57.485Z,8.58
2022-11-24T11:50:00.364Z,8.53
2022-11-24T11:53:27.948Z,8.52
2022-11-24T11:56:35.010Z,8.54
2022-11-24T11:59:59.179Z,8.61
2022-11-24T12:03:19.472Z,8.67
2022-11-24T12:06:40.348Z,8.53
2022-11-24T12:10:03.264Z,8.53
2022-11-24T12:13:34.270Z,8.54
2022-11-24T12:16:58.409Z,8.39
2022-11-24T12:20:37.068Z,8.33
2022-11-24T12:24:01.354Z,8.31
2022-11-24T12:27:24.664Z,8.12
2022-11-24T12:30:36.772Z,7.98
2022-11-24T12:34:04.284Z,7.81
2022-11-24T12:37:15.508Z,7.95
2022-11-24T12:40:35.843Z,7.80
2022-11-24T12:43:42.017Z,7.74
2022-11-24T12:46:59.414Z,7.63
2022-11-24T12:50:09.665Z,7.68
2022-11-24T12:53:33.912Z,7.83
2022-11-24T12:56:45.357Z,7.87
2022-11-24T13:00:13.727Z,7.94
2022-11-24T13:03:36.495Z,7.86
2022-11-24T13:06:51.895Z,7.68
2022-11-24T13:10:53.599Z,7.74
2022-11-24T13:14:05.774Z,7.73
2022-11-24T13:17:58.468Z,7.74
2022-11-24T13:21:03.829Z,7.83
2022-11-24T13:24:20.296Z,7.68
2022-11-24T13:27:28.554Z,7.82
2022-11-24T13:30:33.945Z,7.74
2022-11-24T13:33:37.448Z,7.67
2022-11-24T13:36:55.634Z,7.68
2022-11-24T13:40:20.695Z,7.88
2022-11-24T13:43:23.045Z,7.88
2022-11-24T13:47:04.743Z,7.77
2022-11-24T13:50:21.591Z,7.83
2022-11-24T13:53:38.441Z,7.79
2022-11-24T13:56:42.625Z,7.79
2022-11-24T13:59:45.249Z,7.76
2022-11-24T14:02:48.287Z,7.66
2022-11-24T14:05:52.982Z,7.77
2022-11-24T14:08:55.943Z,7.96
2022-11-24T14:12:17.936Z,7.89
2022-11-24T14:15:26.242Z,7.81
2022-11-24T14:18:31.755Z,7.65
2022-11-24T14:21:38.175Z,7.85
2022-11-24T14:24:45.225Z,7.89
2022-11-24T14:27:48.751Z,7.77
2022-11-24T14:30:52.089Z,7.71
2022-11-24T14:34:14.853Z,7.60
2022-11-24T14:37:19.421Z,7.70
2022-11-24T14:40:43.973Z,7.67
2022-11-24T14:43:46.737Z,7.67
2022-11-24T14:46:49.310Z,7.68
2022-11-24T14:49:54.249Z,7.72
2022-11-24T14:52:59.588Z,7.69
2022-11-24T14:56:27.134Z,7.69
2022-11-24T14:59:37.436Z,7.64
2022-11-24T15:03:01.411Z,7.64
2022-11-24T15:06:18.192Z,7.51
2022-11-24T15:09:34.438Z,7.58
2022-11-24T15:12:42.921Z,7.42
2022-11-24T15:16:02.495Z,7.40
2022-11-24T15:19:17.683Z,7.29
2022-11-24T15:22:45.219Z,7.16
2022-11-24T15:25:50.243Z,7.08
2022-11-24T15:28:53.192Z,7.22
2022-11-24T15:31:58.531Z,7.15
2022-11-24T15:35:01.355Z,7.17
2022-11-24T15:38:04.809Z,7.00
2022-11-24T15:41:19.259Z,6.81
2022-11-24T15:44:22.432Z,6.72
2022-11-24T15:47:25.132Z,6.67
2022-11-24T15:50:30.600Z,6.60
2022-11-24T15:53:36.326Z,6.55
2022-11-24T15:56:41.928Z,6.62
2022-11-24T15:59:44.611Z,6.70
2022-11-24T16:02:48.167Z,6.54
2022-11-24T16:05:54.853Z,6.49
2022-11-24T16:08:59.291Z,6.29
2022-11-24T16:12:03.947Z,6.23
2022-11-24T16:15:06.964Z,6.25
2022-11-24T16:18:10.100Z,6.29
2022-11-24T16:21:13.051Z,6.18
2022-11-24T16:24:15.718Z,6.15
2022-11-24T16:27:18.218Z,6.12
2022-11-24T16:30:23.687Z,6.08
2022-11-24T16:33:30.017Z,5.98
2022-11-24T16:36:33.265Z,5.99
2022-11-24T16:39:36.434Z,6.09
2022-11-24T16:42:42.266Z,5.92
2022-11-24T16:45:45.708Z,5.85
2022-11-24T16:48:54.220Z,5.84
2022-11-24T16:51:57.231Z,5.86
2022-11-24T16:55:00.575Z,5.85
2022-11-24T16:58:05.282Z,5.93
2022-11-24T17:01:15.546Z,5.98
2022-11-24T17:04:18.258Z,5.98
2022-11-24T17:07:22.030Z,5.90
2022-11-24T17:10:24.964Z,5.86
2022-11-24T17:13:28.570Z,5.78
2022-11-24T17:16:31.483Z,5.80
2022-11-24T17:19:36.328Z,5.79
2022-11-24T17:22:40.223Z,5.75
2022-11-24T17:25:48.550Z,5.75
2022-11-24T17:28:51.573Z,5.73
2022-11-24T17:31:56.307Z,5.61
2022-11-24T17:35:05.238Z,5.46
2022-11-24T17:38:12.429Z,5.23
2022-11-24T17:41:16.445Z,5.39
2022-11-24T17:44:19.822Z,5.41
2022-11-24T17:47:24.772Z,5.28
2022-11-24T17:50:29.040Z,5.26
2022-11-24T17:53:33.657Z,5.37
2022-11-24T17:56:42.071Z,5.22
2022-11-24T17:59:45.159Z,5.26
2022-11-24T18:02:50.893Z,5.11
2022-11-24T18:05:57.176Z,5.17
2022-11-24T18:09:00.566Z,5.11
2022-11-24T18:12:04.713Z,5.01
2022-11-24T18:15:10.785Z,5.05
2022-11-24T18:18:15.580Z,5.07
2022-11-24T18:21:20.865Z,5.05
2022-11-24T18:24:24.466Z,4.97
2022-11-24T18:27:35.618Z,4.68
2022-11-24T18:30:41.736Z,4.88
2022-11-24T18:33:46.316Z,4.65
2022-11-24T18:36:52.663Z,4.66
2022-11-24T18:39:58.734Z,4.53
2022-11-24T18:43:03.669Z,4.43
2022-11-24T18:46:09.119Z,4.60
2022-11-24T18:49:15.300Z,4.70
2022-11-24T18:52:22.346Z,4.72
2022-11-24T18:55:29.741Z,4.74
2022-11-24T18:58:35.085Z,4.76
2022-11-24T19:01:39.994Z,4.89
2022-11-24T19:04:46.880Z,4.93
2022-11-24T19:07:56.012Z,4.82
2022-11-24T19:11:03.107Z,4.87
2022-11-24T19:14:14.312Z,4.85
2022-11-24T19:17:19.144Z,4.89
2022-11-24T19:20:24.012Z,4.84
2022-11-24T19:23:36.802Z,4.96
2022-11-24T19:26:42.520Z,4.98
2022-11-24T19:29:49.393Z,5.02
2022-11-24T19:32:53.356Z,5.03
2022-11-24T19:36:07.607Z,4.99
2022-11-24T19:39:15.718Z,5.07
2022-11-24T19:42:23.235Z,5.10
2022-11-24T19:45:34.978Z,5.16
2022-11-24T19:48:41.325Z,5.22
2022-11-24T19:51:51.900Z,5.22
2022-11-24T19:54:56.142Z,5.29
2022-11-24T19:58:08.511Z,5.28
2022-11-24T20:01:27.689Z,5.35
2022-11-24T20:04:40.648Z,5.31
2022-11-24T20:11:14.058Z,5.10
2022-11-24T20:14:19.783Z,5.06
2022-11-24T20:17:27.592Z,5.02
2022-11-24T20:20:30.574Z,4.95
2022-11-24T20:23:39.737Z,5.01
2022-11-24T20:26:51.831Z,5.04
2022-11-24T20:33:32.244Z,4.86
2022-11-24T20:36:38.755Z,4.81
2022-11-24T20:39:44.678Z,4.97
2022-11-24T20:42:49.712Z,5.18
2022-11-24T20:45:55.254Z,5.21
2022-11-24T20:49:01.910Z,5.34
2022-11-24T20:52:15.047Z,5.31
2022-11-24T20:55:18.071Z,5.25
2022-11-24T20:58:24.969Z,5.12
2022-11-24T21:01:39.099Z,5.20
2022-11-24T21:04:46.376Z,5.07
2022-11-24T21:07:52.814Z,5.16
2022-11-24T21:11:00.306Z,5.15
2022-11-24T21:14:06.914Z,5.12
2022-11-24T21:17:17.242Z,5.17
2022-11-24T21:20:29.686Z,5.18
2022-11-24T21:23:37.892Z,5.21
2022-11-24T21:26:51.661Z,5.42
2022-11-24T21:29:57.359Z,5.38
2022-11-24T21:33:07.962Z,5.36
2022-11-24T21:36:12.832Z,5.33
2022-11-24T21:39:16.565Z,5.24
2022-11-24T21:42:20.918Z,5.13
2022-11-24T21:45:24.955Z,5.07
2022-11-24T21:48:33.990Z,5.14
2022-11-24T21:51:42.670Z,5.13
2022-11-24T21:54:47.051Z,4.92
2022-11-24T21:57:55.701Z,4.83
2022-11-24T22:01:11.715Z,4.91
2022-11-24T22:04:16.475Z,4.69
2022-11-24T22:07:19.535Z,4.59
2022-11-24T22:10:25.272Z,4.41
2022-11-24T22:13:30.735Z,4.19
2022-11-24T22:16:34.987Z,4.22
2022-11-24T22:19:42.358Z,4.24
2022-11-24T22:22:48.045Z,4.33
2022-11-24T22:25:52.719Z,4.31
2022-11-24T22:29:21.625Z,4.42
2022-11-24T22:32:27.338Z,4.42
2022-11-24T22:35:33.647Z,4.44
2022-11-24T22:38:40.282Z,4.34
2022-11-24T22:41:48.392Z,4.49
2022-11-24T22:44:55.804Z,4.43
2022-11-24T22:48:00.805Z,4.44
2022-11-24T22:51:12.018Z,4.47
2022-11-24T22:54:17.153Z,4.47
2022-11-24T22:57:21.466Z,4.38
2022-11-24T23:00:30.781Z,4.29
2022-11-24T23:03:38.697Z,4.27
2022-11-24T23:06:48.057Z,4.45
2022-11-24T23:09:55.950Z,4.29
2022-11-24T23:13:01.158Z,4.29
2022-11-24T23:16:24.324Z,4.24
2022-11-24T23:19:32.503Z,4.04
2022-11-24T23:22:37.804Z,4.11
2022-11-24T23:26:04.184Z,4.24
2022-11-24T23:29:17.604Z,4.22
2022-11-24T23:35:45.668Z,4.19
2022-11-24T23:38:55.613Z,4.01
2022-11-24T23:42:11.000Z,4.13
2022-11-24T23:45:18.997Z,4.12
2022-11-24T23:48:36.879Z,4.06
2022-11-24T23:51:51.075Z,3.99
2022-11-24T23:54:54.969Z,4.09
2022-11-24T23:58:00.116Z,3.88
